EDDH/HAM METAR and TAF weather

Enter ICAO airport designator
Station Type Date Time Source
EDDH METAR 2022/11/30 18:20 UTC NOAA

EDDH 301820Z AUTO 08005KT 3700 BR OVC004 04/03 Q1027 NOSIG


Station Type Date Time Source
EDDH Decoded METAR 2022/11/30 18:20 UTC NOAA

Hamburg-Fuhlsbuettel, Germany (EDDH) 53-38N 010-00E 15M
Nov 30, 2022 - 01:20 PM EST / 2022.11.30 1820 UTC
Wind: from the E (080 degrees) at 6 MPH (5 KT):0
Visibility: 2 mile(s):0
Sky conditions: overcast
Weather: mist
Temperature: 39 F (4 C)
Dew Point: 37 F (3 C)
Relative Humidity: 93%
Pressure (altimeter): 30.33 in. Hg (1027 hPa)
ob: EDDH 301820Z AUTO 08005KT 3700 BR OVC004 04/03 Q1027 NOSIG
cycle: 18

Station Type Date Time Source
EDDH TAF 2022/11/30 18:27 UTC NOAA

TAF EDDH 301700Z 3018/0124 07005KT 6000 OVC007
TEMPO 3018/0110 3500 -DZ BR OVC003 PROB30
TEMPO 3020/3024 FEW007 BKN025 PROB40
TEMPO 0110/0124 BKN012 PROB30
TEMPO 0118/0124 SCT025

Example: see airport list